createdAt,value
2017-07-20T00:01:42.171Z,62.20
2017-07-20T00:04:10.839Z,62.18
2017-07-20T00:06:40.140Z,62.11
2017-07-20T00:09:08.398Z,62.46
2017-07-20T00:11:36.512Z,62.42
2017-07-20T00:14:04.093Z,62.28
2017-07-20T00:16:31.703Z,62.54
2017-07-20T00:18:59.607Z,63.00
2017-07-20T00:21:27.394Z,62.82
2017-07-20T00:23:55.890Z,63.10
2017-07-20T00:26:23.559Z,62.73
2017-07-20T00:28:51.128Z,62.40
2017-07-20T00:31:18.762Z,62.50
2017-07-20T00:33:46.350Z,62.51
2017-07-20T00:36:14.955Z,62.06
2017-07-20T00:38:42.586Z,62.96
2017-07-20T00:41:11.687Z,62.49
2017-07-20T00:43:40.650Z,63.08
2017-07-20T00:46:08.243Z,63.15
2017-07-20T00:48:36.805Z,63.73
2017-07-20T00:51:04.355Z,63.23
2017-07-20T00:53:31.912Z,62.58
2017-07-20T00:55:59.551Z,62.25
2017-07-20T00:58:27.249Z,61.96
2017-07-20T01:00:54.935Z,61.33
2017-07-20T01:03:22.752Z,61.55
2017-07-20T01:05:50.843Z,61.40
2017-07-20T01:08:19.226Z,61.48
2017-07-20T01:10:48.044Z,61.74
2017-07-20T01:13:15.619Z,61.52
2017-07-20T01:15:43.722Z,61.44
2017-07-20T01:18:12.007Z,61.30
2017-07-20T01:20:39.658Z,61.40
2017-07-20T01:23:07.894Z,61.30
2017-07-20T01:25:36.238Z,61.32
2017-07-20T01:28:03.986Z,61.20
2017-07-20T01:30:32.471Z,60.98
2017-07-20T01:33:00.363Z,61.09
2017-07-20T01:35:28.691Z,60.96
2017-07-20T01:37:56.365Z,61.00
2017-07-20T01:40:23.907Z,60.68
2017-07-20T01:42:51.421Z,60.63
2017-07-20T01:45:19.044Z,60.51
2017-07-20T01:47:46.805Z,60.53
2017-07-20T01:50:14.342Z,60.54
2017-07-20T01:52:55.658Z,61.17
2017-07-20T01:55:23.208Z,61.52
2017-07-20T01:57:50.738Z,61.96
2017-07-20T02:00:18.393Z,61.94
2017-07-20T02:02:45.963Z,61.77
2017-07-20T02:05:13.498Z,61.87
2017-07-20T02:07:41.058Z,61.83
2017-07-20T02:10:08.877Z,62.04
2017-07-20T02:12:36.486Z,61.99
2017-07-20T02:15:04.289Z,61.91
2017-07-20T02:17:32.708Z,61.75
2017-07-20T02:20:00.329Z,61.85
2017-07-20T02:22:29.063Z,61.81
2017-07-20T02:24:56.626Z,61.89
2017-07-20T02:27:24.396Z,61.85
2017-07-20T02:29:51.978Z,61.66
2017-07-20T02:32:20.821Z,61.86
2017-07-20T02:34:48.627Z,62.23
2017-07-20T02:37:17.741Z,62.37
2017-07-20T02:39:45.331Z,62.45
2017-07-20T02:42:12.895Z,62.55
2017-07-20T02:44:40.426Z,62.54
2017-07-20T02:47:08.114Z,62.83
2017-07-20T02:49:35.679Z,62.97
2017-07-20T02:52:03.441Z,63.23
2017-07-20T02:54:30.990Z,63.19
2017-07-20T02:56:58.782Z,63.36
2017-07-20T02:59:27.072Z,63.39
2017-07-20T03:01:55.141Z,63.54
2017-07-20T03:04:22.742Z,63.29
2017-07-20T03:06:51.189Z,63.13
2017-07-20T03:09:18.852Z,63.75
2017-07-20T03:11:46.443Z,64.43
2017-07-20T03:14:14.106Z,63.91
2017-07-20T03:16:41.748Z,63.81
2017-07-20T03:19:09.309Z,63.82
2017-07-20T03:21:38.737Z,63.81
2017-07-20T03:24:06.533Z,63.66
2017-07-20T03:26:34.088Z,63.69
2017-07-20T03:29:01.588Z,63.85
2017-07-20T03:31:29.180Z,63.38
2017-07-20T03:33:56.710Z,63.30
2017-07-20T03:36:24.264Z,63.20
2017-07-20T03:38:51.835Z,63.09
2017-07-20T03:41:19.377Z,63.11
2017-07-20T03:43:47.193Z,63.10
2017-07-20T03:46:14.759Z,62.90
2017-07-20T03:48:42.611Z,63.18
2017-07-20T03:51:11.916Z,62.92
2017-07-20T03:53:39.523Z,63.13
2017-07-20T03:56:07.054Z,63.12
2017-07-20T03:58:34.627Z,63.11
2017-07-20T04:01:02.202Z,62.74
2017-07-20T04:03:29.750Z,61.56
2017-07-20T04:05:57.301Z,62.01
2017-07-20T04:08:25.825Z,62.19
2017-07-20T04:10:53.368Z,62.35
2017-07-20T04:13:21.735Z,62.08
2017-07-20T04:15:50.201Z,62.13
2017-07-20T04:18:17.817Z,61.82
2017-07-20T04:20:45.407Z,61.39
2017-07-20T04:23:12.963Z,64.54
2017-07-20T04:25:40.713Z,58.98
2017-07-20T04:28:08.327Z,57.03
2017-07-20T04:30:35.951Z,55.37
2017-07-20T04:33:03.493Z,54.38
2017-07-20T04:35:31.042Z,53.33
2017-07-20T04:37:58.607Z,52.71
2017-07-20T04:40:26.207Z,52.45
2017-07-20T04:42:53.802Z,54.49
2017-07-20T04:48:41.523Z,56.12
2017-07-20T04:54:16.649Z,56.07
2017-07-20T04:56:45.046Z,55.02
2017-07-20T04:59:12.667Z,55.84
2017-07-20T05:01:41.216Z,56.35
2017-07-20T05:04:08.795Z,56.39
2017-07-20T05:06:37.223Z,56.89
2017-07-20T05:09:04.997Z,56.77
2017-07-20T05:11:32.554Z,56.64
2017-07-20T05:14:00.165Z,56.97
2017-07-20T05:16:27.819Z,56.91
2017-07-20T05:18:55.418Z,56.96
2017-07-20T05:21:23.040Z,55.77
2017-07-20T05:23:50.687Z,55.58
2017-07-20T05:26:18.262Z,55.76
2017-07-20T05:28:45.920Z,55.44
2017-07-20T05:31:13.538Z,55.07
2017-07-20T05:33:41.167Z,55.11
2017-07-20T05:36:08.847Z,54.54
2017-07-20T05:38:36.676Z,54.47
2017-07-20T05:41:05.087Z,53.20
2017-07-20T05:43:33.618Z,53.03
2017-07-20T05:46:01.705Z,52.64
2017-07-20T05:48:29.835Z,50.80
2017-07-20T05:50:57.494Z,50.95
2017-07-20T05:53:25.849Z,50.91
2017-07-20T05:55:54.304Z,50.90
2017-07-20T05:58:22.727Z,50.54
2017-07-20T06:00:50.354Z,50.30
2017-07-20T06:03:18.105Z,49.37
2017-07-20T06:05:45.890Z,48.46
2017-07-20T06:08:13.494Z,47.78
2017-07-20T06:10:41.297Z,47.19
2017-07-20T06:13:09.051Z,45.67
2017-07-20T06:15:36.661Z,46.54
2017-07-20T06:18:04.255Z,46.52
2017-07-20T06:20:33.509Z,46.88
2017-07-20T06:23:01.802Z,46.56
2017-07-20T06:25:30.163Z,45.67
2017-07-20T06:27:57.765Z,46.12
2017-07-20T06:30:25.457Z,45.27
2017-07-20T06:32:53.524Z,44.49
2017-07-20T06:35:21.985Z,45.35
2017-07-20T06:37:50.252Z,44.16
2017-07-20T06:40:18.223Z,43.96
2017-07-20T06:42:46.656Z,42.60
2017-07-20T06:45:14.532Z,42.33
2017-07-20T06:47:42.299Z,41.75
2017-07-20T06:50:10.003Z,41.33
2017-07-20T06:52:37.741Z,41.60
2017-07-20T06:55:05.564Z,41.75
2017-07-20T06:57:33.289Z,42.33
2017-07-20T07:00:00.863Z,41.30
2017-07-20T07:02:31.823Z,40.77
2017-07-20T07:05:00.791Z,39.78
2017-07-20T07:07:29.490Z,40.11
2017-07-20T07:09:59.885Z,40.47
2017-07-20T07:12:27.469Z,40.62
2017-07-20T07:14:55.094Z,40.34
2017-07-20T07:17:22.900Z,39.26
2017-07-20T07:19:51.355Z,39.90
2017-07-20T07:22:19.358Z,40.12
2017-07-20T07:24:46.953Z,39.28
2017-07-20T07:27:14.787Z,39.23
2017-07-20T07:29:43.631Z,38.49
2017-07-20T07:32:12.743Z,39.16
2017-07-20T07:34:40.330Z,38.24
2017-07-20T07:37:07.930Z,38.62
2017-07-20T07:39:35.532Z,38.32
2017-07-20T07:42:03.169Z,38.07
2017-07-20T07:44:30.801Z,37.57
2017-07-20T07:46:59.249Z,37.67
2017-07-20T07:49:27.711Z,38.49
2017-07-20T07:51:55.521Z,37.46
2017-07-20T07:54:23.239Z,38.41
2017-07-20T07:56:52.346Z,38.24
2017-07-20T07:59:19.936Z,37.56
2017-07-20T08:01:47.630Z,37.17
2017-07-20T08:04:15.788Z,36.29
2017-07-20T08:06:43.561Z,37.77
2017-07-20T08:09:11.179Z,38.20
2017-07-20T08:12:10.704Z,38.85
2017-07-20T08:14:38.618Z,37.93
2017-07-20T08:17:06.270Z,38.36
2017-07-20T08:19:33.923Z,39.20
2017-07-20T08:22:01.591Z,39.04
2017-07-20T08:24:29.177Z,39.39
2017-07-20T08:26:56.740Z,38.66
2017-07-20T08:29:24.359Z,37.85
2017-07-20T08:31:52.009Z,38.20
2017-07-20T08:34:19.584Z,36.80
2017-07-20T08:36:47.215Z,37.31
2017-07-20T08:39:14.961Z,36.34
2017-07-20T08:41:42.641Z,36.23
2017-07-20T08:44:10.295Z,36.09
2017-07-20T08:46:38.032Z,35.64
2017-07-20T08:49:10.704Z,36.28
2017-07-20T08:51:38.302Z,34.40
2017-07-20T08:54:06.834Z,34.17
2017-07-20T08:56:34.673Z,34.49
2017-07-20T08:59:02.319Z,34.37
2017-07-20T09:01:31.290Z,32.26
2017-07-20T09:03:59.805Z,31.01
2017-07-20T09:06:29.016Z,31.22
2017-07-20T09:08:56.788Z,31.54
2017-07-20T09:11:24.341Z,32.08
2017-07-20T09:13:52.630Z,29.61
2017-07-20T09:16:20.276Z,30.42
2017-07-20T09:18:48.920Z,29.49
2017-07-20T09:21:17.185Z,31.10
2017-07-20T09:23:46.569Z,30.84
2017-07-20T09:26:14.182Z,32.45
2017-07-20T09:28:42.398Z,31.63
2017-07-20T09:31:10.075Z,30.50
2017-07-20T09:33:38.675Z,30.20
2017-07-20T09:36:06.504Z,30.32
2017-07-20T09:38:34.116Z,30.61
2017-07-20T09:41:01.947Z,29.42
2017-07-20T09:43:29.862Z,29.01
2017-07-20T09:45:58.321Z,29.13
2017-07-20T09:48:26.008Z,29.90
2017-07-20T09:50:53.785Z,29.89
2017-07-20T09:53:22.905Z,30.30
2017-07-20T09:55:50.595Z,29.48
2017-07-20T09:58:18.212Z,28.94
2017-07-20T10:00:46.881Z,28.17
2017-07-20T10:03:14.913Z,28.26
2017-07-20T10:05:44.402Z,28.37
2017-07-20T10:08:12.874Z,28.32
2017-07-20T10:10:40.665Z,28.16
2017-07-20T10:13:08.922Z,28.71
2017-07-20T10:15:36.557Z,28.64
2017-07-20T10:18:04.121Z,26.06
2017-07-20T10:20:31.694Z,25.39
2017-07-20T10:22:59.360Z,25.64
2017-07-20T10:25:26.923Z,24.66
2017-07-20T10:27:56.011Z,25.27
2017-07-20T10:30:23.659Z,25.63
2017-07-20T10:32:51.440Z,24.65
2017-07-20T10:35:20.676Z,23.73
2017-07-20T10:37:48.461Z,24.76
2017-07-20T10:40:16.694Z,25.03
2017-07-20T10:42:44.680Z,25.77
2017-07-20T10:45:12.883Z,25.78
2017-07-20T10:47:40.520Z,26.35
2017-07-20T10:50:08.132Z,26.15
2017-07-20T10:52:35.783Z,26.29
2017-07-20T10:55:03.420Z,26.67
2017-07-20T10:57:31.030Z,26.87
2017-07-20T10:59:58.700Z,26.75
2017-07-20T11:02:26.299Z,26.90
2017-07-20T11:04:53.934Z,26.80
2017-07-20T11:07:22.577Z,27.13
2017-07-20T11:09:51.638Z,24.56
2017-07-20T11:12:20.030Z,24.61
2017-07-20T11:14:47.773Z,25.60
2017-07-20T11:17:16.052Z,26.83
2017-07-20T11:19:44.564Z,27.47
2017-07-20T11:22:14.278Z,27.53
2017-07-20T11:24:42.537Z,27.98
2017-07-20T11:27:10.148Z,26.91
2017-07-20T11:29:37.720Z,27.50
2017-07-20T11:32:05.350Z,27.81
2017-07-20T11:34:33.013Z,27.46
2017-07-20T11:37:02.929Z,26.51
2017-07-20T11:39:30.562Z,26.66
2017-07-20T11:41:59.450Z,25.63
2017-07-20T11:44:46.369Z,25.76
2017-07-20T11:47:14.421Z,25.35
2017-07-20T11:49:43.065Z,25.71
2017-07-20T11:52:11.490Z,26.15
2017-07-20T11:54:40.000Z,26.02
2017-07-20T11:57:07.787Z,25.86
2017-07-20T11:59:35.393Z,26.54
2017-07-20T12:02:03.066Z,27.41
2017-07-20T12:04:31.714Z,27.50
2017-07-20T12:06:59.300Z,27.79
2017-07-20T12:09:26.874Z,27.27
2017-07-20T12:11:54.457Z,26.88
2017-07-20T12:14:21.986Z,26.68
2017-07-20T12:16:49.542Z,25.92
2017-07-20T12:19:17.284Z,25.66
2017-07-20T12:21:44.813Z,24.96
2017-07-20T12:24:12.413Z,25.01
2017-07-20T12:26:39.986Z,25.33
2017-07-20T12:29:09.114Z,25.23
2017-07-20T12:31:37.050Z,25.83
2017-07-20T12:34:05.392Z,25.52
2017-07-20T12:36:32.911Z,25.85
2017-07-20T12:39:00.499Z,25.54
2017-07-20T12:41:28.024Z,25.81
2017-07-20T12:43:56.241Z,24.30
2017-07-20T12:46:24.720Z,24.77
2017-07-20T12:48:53.253Z,25.64
2017-07-20T12:51:20.871Z,26.09
2017-07-20T12:53:48.486Z,26.15
2017-07-20T12:56:16.655Z,26.27
2017-07-20T12:58:45.707Z,26.39
2017-07-20T13:01:13.353Z,26.47
2017-07-20T13:03:42.261Z,26.52
2017-07-20T13:06:11.686Z,26.34
2017-07-20T13:08:39.292Z,25.69
2017-07-20T13:11:06.894Z,25.22
2017-07-20T13:13:34.415Z,25.64
2017-07-20T13:16:03.427Z,25.94
2017-07-20T13:18:30.994Z,25.83
2017-07-20T13:20:59.503Z,25.74
2017-07-20T13:23:27.964Z,25.70
2017-07-20T13:25:56.941Z,25.63
2017-07-20T13:28:25.038Z,26.44
2017-07-20T13:30:53.411Z,26.10
2017-07-20T13:33:21.945Z,26.25
2017-07-20T13:35:49.479Z,26.36
2017-07-20T13:38:17.298Z,26.10
2017-07-20T13:40:45.095Z,26.14
2017-07-20T13:43:12.939Z,26.38
2017-07-20T13:45:40.556Z,26.52
2017-07-20T13:48:08.921Z,26.27
2017-07-20T13:50:37.527Z,26.47
2017-07-20T13:53:06.011Z,27.11
2017-07-20T13:55:33.978Z,27.14
2017-07-20T13:58:02.047Z,27.15
2017-07-20T14:00:30.388Z,27.55
2017-07-20T14:02:58.871Z,27.71
2017-07-20T14:05:26.664Z,27.55
2017-07-20T14:07:54.637Z,27.82
2017-07-20T14:10:22.423Z,27.35
2017-07-20T14:12:50.964Z,28.02
2017-07-20T14:15:18.583Z,27.52
2017-07-20T14:17:46.349Z,28.16
2017-07-20T14:20:14.963Z,28.21
2017-07-20T14:22:43.898Z,28.42
2017-07-20T14:25:12.485Z,27.94
2017-07-20T14:27:40.894Z,28.02
2017-07-20T14:30:09.199Z,27.68
2017-07-20T14:32:37.118Z,28.00
2017-07-20T14:35:05.601Z,28.35
2017-07-20T14:37:33.766Z,28.50
2017-07-20T14:40:02.202Z,28.61
2017-07-20T14:42:29.843Z,28.46
2017-07-20T14:44:58.133Z,28.65
2017-07-20T14:47:25.713Z,29.02
2017-07-20T14:49:54.281Z,29.55
2017-07-20T14:52:21.974Z,29.54
2017-07-20T14:54:49.585Z,28.64
2017-07-20T14:57:17.945Z,29.10
2017-07-20T14:59:45.530Z,29.02
2017-07-20T15:02:14.036Z,28.75
2017-07-20T15:04:41.705Z,28.43
2017-07-20T15:07:10.575Z,29.04
2017-07-20T15:09:38.712Z,29.56
2017-07-20T15:12:07.127Z,29.30
2017-07-20T15:14:34.682Z,29.20
2017-07-20T15:17:02.655Z,29.66
2017-07-20T15:19:30.330Z,29.69
2017-07-20T15:21:57.947Z,29.75
2017-07-20T15:24:26.442Z,30.29
2017-07-20T15:26:53.966Z,30.49
2017-07-20T15:29:22.247Z,30.17
2017-07-20T15:31:50.923Z,30.19
2017-07-20T15:34:18.623Z,30.63
2017-07-20T15:36:47.445Z,30.80
2017-07-20T15:39:15.501Z,30.93
2017-07-20T15:41:43.622Z,30.85
2017-07-20T15:44:12.227Z,31.15
2017-07-20T15:46:39.787Z,31.32
2017-07-20T15:49:07.628Z,30.67
2017-07-20T15:51:35.404Z,30.81
2017-07-20T15:54:03.009Z,31.15
2017-07-20T15:56:31.193Z,31.27
2017-07-20T15:58:59.501Z,31.49
2017-07-20T16:01:27.459Z,31.75
2017-07-20T16:03:55.089Z,31.30
2017-07-20T16:06:23.459Z,31.24
2017-07-20T16:08:51.212Z,31.66
2017-07-20T16:11:18.954Z,31.64
2017-07-20T16:13:47.126Z,32.36
2017-07-20T16:16:14.740Z,32.12
2017-07-20T16:18:42.250Z,32.77
2017-07-20T16:21:09.785Z,33.06
2017-07-20T16:23:38.934Z,33.11
2017-07-20T16:26:07.431Z,32.97
2017-07-20T16:28:35.127Z,32.91
2017-07-20T16:31:03.852Z,32.92
2017-07-20T16:33:32.753Z,32.93
2017-07-20T16:36:01.281Z,32.96
2017-07-20T16:38:29.901Z,33.04
2017-07-20T16:40:58.562Z,33.25
2017-07-20T16:43:27.004Z,32.77
2017-07-20T16:45:55.356Z,30.77
2017-07-20T16:48:23.158Z,30.94
2017-07-20T16:50:50.906Z,31.69
2017-07-20T16:53:19.286Z,32.56
2017-07-20T16:55:50.016Z,33.20
2017-07-20T16:58:19.351Z,33.71
2017-07-20T17:00:47.702Z,34.13
2017-07-20T17:03:16.149Z,34.41
2017-07-20T17:05:43.786Z,34.93
2017-07-20T17:08:12.200Z,35.39
2017-07-20T17:10:40.557Z,35.99
2017-07-20T17:13:08.484Z,35.94
2017-07-20T17:15:36.132Z,36.43
2017-07-20T17:18:03.876Z,37.17
2017-07-20T17:20:32.300Z,37.10
2017-07-20T17:23:01.444Z,37.77
2017-07-20T17:25:30.561Z,38.11
2017-07-20T17:28:00.114Z,38.54
2017-07-20T17:30:28.772Z,38.83
2017-07-20T17:32:57.620Z,39.17
2017-07-20T17:35:26.103Z,39.17
2017-07-20T17:37:54.737Z,39.44
2017-07-20T17:40:23.181Z,39.69
2017-07-20T17:42:50.847Z,40.20
2017-07-20T17:45:18.679Z,39.94
2017-07-20T17:47:47.529Z,40.39
2017-07-20T17:50:15.215Z,40.16
2017-07-20T17:52:42.913Z,40.05
2017-07-20T17:55:10.569Z,39.89
2017-07-20T17:57:38.193Z,39.85
2017-07-20T18:00:06.615Z,40.29
2017-07-20T18:02:34.776Z,40.71
2017-07-20T18:05:02.524Z,40.82
2017-07-20T18:07:30.243Z,41.11
2017-07-20T18:09:57.883Z,42.35
2017-07-20T18:12:26.084Z,43.36
2017-07-20T18:14:54.078Z,44.03
2017-07-20T18:17:21.759Z,44.71
2017-07-20T18:19:49.388Z,44.88
2017-07-20T18:22:17.872Z,44.82
2017-07-20T18:24:45.592Z,44.92
2017-07-20T18:27:13.167Z,44.46
2017-07-20T18:29:41.097Z,44.83
2017-07-20T18:32:09.576Z,45.18
2017-07-20T18:34:38.785Z,44.51
2017-07-20T18:37:07.096Z,44.55
2017-07-20T18:39:36.205Z,44.43
2017-07-20T18:42:04.641Z,44.21
2017-07-20T18:44:33.106Z,44.26
2017-07-20T18:47:01.047Z,44.06
2017-07-20T18:49:29.013Z,43.87
2017-07-20T18:51:56.623Z,43.75
2017-07-20T18:54:24.210Z,43.93
2017-07-20T18:56:52.129Z,44.30
2017-07-20T18:59:19.831Z,44.32
2017-07-20T19:01:48.125Z,44.04
2017-07-20T19:04:17.119Z,43.95
2017-07-20T19:06:44.654Z,43.96
2017-07-20T19:09:13.178Z,44.22
2017-07-20T19:11:40.735Z,44.43
2017-07-20T19:14:09.322Z,44.54
2017-07-20T19:16:36.925Z,45.01
2017-07-20T19:19:04.476Z,44.94
2017-07-20T19:21:32.328Z,44.44
2017-07-20T19:24:00.272Z,44.52
2017-07-20T19:26:31.412Z,44.81
2017-07-20T19:28:59.089Z,44.81
2017-07-20T19:31:27.669Z,44.96
2017-07-20T19:33:56.304Z,44.82
2017-07-20T19:36:24.741Z,44.65
2017-07-20T19:38:52.468Z,44.79
2017-07-20T19:41:20.859Z,45.02
2017-07-20T19:43:48.605Z,45.25
2017-07-20T19:46:16.512Z,45.06
2017-07-20T19:48:45.084Z,45.52
2017-07-20T19:51:13.032Z,45.49
2017-07-20T19:53:40.821Z,45.44
2017-07-20T19:56:08.522Z,45.25
2017-07-20T19:58:36.271Z,44.90
2017-07-20T20:01:03.999Z,45.04
2017-07-20T20:03:31.769Z,45.60
2017-07-20T20:05:59.485Z,45.19
2017-07-20T20:08:27.227Z,45.83
2017-07-20T20:10:54.984Z,46.40
2017-07-20T20:13:23.650Z,47.10
2017-07-20T20:15:51.674Z,47.47
2017-07-20T20:18:22.294Z,47.12
2017-07-20T20:20:54.493Z,47.07
2017-07-20T20:23:22.213Z,47.64
2017-07-20T20:28:51.556Z,48.71
2017-07-20T20:31:19.794Z,49.01
2017-07-20T20:33:47.518Z,48.91
2017-07-20T20:36:15.284Z,49.23
2017-07-20T20:38:43.094Z,49.91
2017-07-20T20:41:11.068Z,50.25
2017-07-20T20:47:03.096Z,52.03
2017-07-20T20:49:30.875Z,52.73
2017-07-20T20:52:01.289Z,53.24
2017-07-20T20:54:30.164Z,53.30
2017-07-20T20:56:59.320Z,53.51
2017-07-20T20:59:27.213Z,53.88
2017-07-20T21:01:54.982Z,53.70
2017-07-20T21:04:29.553Z,54.30
2017-07-20T21:06:57.296Z,54.42
2017-07-20T21:09:26.706Z,54.69
2017-07-20T21:11:57.191Z,54.55
2017-07-20T21:14:25.145Z,54.39
2017-07-20T21:16:52.926Z,54.15
2017-07-20T21:19:20.823Z,53.90
2017-07-20T21:21:48.533Z,53.83
2017-07-20T21:24:16.263Z,53.79
2017-07-20T21:26:44.909Z,53.85
2017-07-20T21:29:13.301Z,53.84
2017-07-20T21:31:41.141Z,53.76
2017-07-20T21:37:30.593Z,54.20
2017-07-20T21:39:58.316Z,54.43
2017-07-20T21:42:26.096Z,54.51
2017-07-20T21:44:53.885Z,54.44
2017-07-20T21:47:21.828Z,54.44
2017-07-20T21:49:50.340Z,54.26
2017-07-20T21:52:18.242Z,54.25
2017-07-20T21:54:46.926Z,54.44
2017-07-20T21:57:14.711Z,54.06
2017-07-20T21:59:42.534Z,54.50
2017-07-20T22:02:10.279Z,54.09
2017-07-20T22:04:38.106Z,54.01
2017-07-20T22:07:05.813Z,54.54
2017-07-20T22:09:33.557Z,54.26
2017-07-20T22:12:01.229Z,54.14
2017-07-20T22:14:29.139Z,53.30
2017-07-20T22:16:56.995Z,52.55
2017-07-20T22:19:28.049Z,52.86
2017-07-20T22:21:55.994Z,52.54
2017-07-20T22:24:23.706Z,52.20
2017-07-20T22:26:51.646Z,51.73
2017-07-20T22:29:20.317Z,52.03
2017-07-20T22:31:48.061Z,51.70
2017-07-20T22:34:15.867Z,51.36
2017-07-20T22:36:44.290Z,51.33
2017-07-20T22:39:11.965Z,51.75
2017-07-20T22:41:39.739Z,51.74
2017-07-20T22:44:07.484Z,52.52
2017-07-20T22:46:35.282Z,53.04
2017-07-20T22:49:03.440Z,53.17
2017-07-20T22:51:31.600Z,52.98
2017-07-20T22:53:59.353Z,52.76
2017-07-20T22:56:27.102Z,52.79
2017-07-20T22:58:54.857Z,52.69
2017-07-20T23:01:22.652Z,52.51
2017-07-20T23:03:56.593Z,52.74
2017-07-20T23:06:24.308Z,52.63
2017-07-20T23:08:52.128Z,52.98
2017-07-20T23:11:19.993Z,53.23
2017-07-20T23:13:47.739Z,53.22
2017-07-20T23:16:15.544Z,53.26
2017-07-20T23:18:43.232Z,53.55
2017-07-20T23:21:11.901Z,53.67
2017-07-20T23:23:40.615Z,53.61
2017-07-20T23:26:08.422Z,53.60
2017-07-20T23:28:36.175Z,53.67
2017-07-20T23:31:03.997Z,53.98
2017-07-20T23:33:31.743Z,54.27
2017-07-20T23:35:59.387Z,54.14
2017-07-20T23:38:27.068Z,54.43
2017-07-20T23:40:54.834Z,54.73
2017-07-20T23:43:22.580Z,54.61
2017-07-20T23:45:52.173Z,54.48
2017-07-20T23:48:19.893Z,54.60
2017-07-20T23:50:47.654Z,54.58
2017-07-20T23:53:15.434Z,54.47
2017-07-20T23:55:43.198Z,54.09
2017-07-20T23:58:10.962Z,53.80
